Time;durP1;ratioP1;P1;durP2;ratioP2;P2;SDS_P1;SDS_P2;PMS_P1;PMS_P2;Temp;Humidity;BMP_temperature;BMP_pressure;BME280_temperature;BME280_humidity;BME280_pressure;Samples;Min_cycle;Max_cycle;Signal;HPM_P1;HPM_P2
2024/01/08 00:02:21;;;;;;;;;;;19.30;45.60;;;;;;5080449;28;19928;-57
2024/01/08 00:04:48;;;;;;;;;;;19.30;45.60;;;;;;5085919;28;19920;-56
2024/01/08 00:07:14;;;;;;;;;;;19.30;45.60;;;;;;5081896;28;19924;-55
2024/01/08 00:09:43;;;;;;;;;;;19.30;45.60;;;;;;5081334;28;19977;-58
2024/01/08 00:12:09;;;;;;;;;;;19.20;45.50;;;;;;5093240;28;19919;-56
2024/01/08 00:14:36;;;;;;;;;;;19.20;45.50;;;;;;5074042;28;19924;-55
2024/01/08 00:17:03;;;;;;;;;;;19.20;45.50;;;;;;5090515;28;19920;-56
2024/01/08 00:19:30;;;;;;;;;;;19.20;45.50;;;;;;5086815;28;19927;-57
2024/01/08 00:21:57;;;;;;;;;;;19.20;45.50;;;;;;5093435;28;19923;-59
2024/01/08 00:24:24;;;;;;;;;;;19.30;45.50;;;;;;5083179;28;19920;-56
2024/01/08 00:26:52;;;;;;;;;;;19.20;45.50;;;;;;5081901;28;19920;-56
2024/01/08 00:29:19;;;;;;;;;;;19.20;45.50;;;;;;5095002;28;19924;-56
2024/01/08 00:31:46;;;;;;;;;;;19.20;45.50;;;;;;5095257;28;19920;-55
2024/01/08 00:34:13;;;;;;;;;;;19.20;45.50;;;;;;5090389;28;19920;-56
2024/01/08 00:36:40;;;;;;;;;;;19.20;45.50;;;;;;5077041;28;19981;-56
2024/01/08 00:39:09;;;;;;;;;;;19.20;45.60;;;;;;5079205;28;19942;-56
2024/01/08 00:41:36;;;;;;;;;;;19.30;45.60;;;;;;5086200;28;20009;-57
2024/01/08 00:44:04;;;;;;;;;;;19.20;46.10;;;;;;5087569;28;19920;-57
2024/01/08 00:46:32;;;;;;;;;;;19.20;45.60;;;;;;5091385;28;19921;-57
2024/01/08 00:48:59;;;;;;;;;;;19.20;45.60;;;;;;5094246;28;19927;-56
2024/01/08 00:51:26;;;;;;;;;;;19.20;45.60;;;;;;5083806;28;19924;-56
2024/01/08 00:53:52;;;;;;;;;;;19.20;45.60;;;;;;5064472;28;19920;-57
2024/01/08 00:56:20;;;;;;;;;;;19.20;45.60;;;;;;5077960;28;19920;-56
2024/01/08 00:58:47;;;;;;;;;;;19.20;45.60;;;;;;5083861;28;19920;-56
2024/01/08 01:01:16;;;;;;;;;;;19.20;45.60;;;;;;5070640;28;20010;-57
2024/01/08 01:03:42;;;;;;;;;;;19.20;45.60;;;;;;5079947;28;19973;-57
2024/01/08 01:06:09;;;;;;;;;;;19.20;45.60;;;;;;5095752;28;19989;-56
2024/01/08 01:08:38;;;;;;;;;;;19.20;45.70;;;;;;5094141;28;19920;-57
2024/01/08 01:11:06;;;;;;;;;;;19.20;45.60;;;;;;5080437;28;19920;-56
2024/01/08 01:13:33;;;;;;;;;;;19.20;45.70;;;;;;5095080;28;19935;-56
2024/01/08 01:16:01;;;;;;;;;;;19.20;45.70;;;;;;5095702;28;20027;-56
2024/01/08 01:18:30;;;;;;;;;;;19.20;46.20;;;;;;5091734;28;19973;-57
2024/01/08 01:20:57;;;;;;;;;;;19.20;45.70;;;;;;5082684;28;19920;-56
2024/01/08 01:23:23;;;;;;;;;;;19.20;45.70;;;;;;5095687;28;19966;-55
2024/01/08 01:25:50;;;;;;;;;;;19.20;45.70;;;;;;5083891;28;20028;-56
2024/01/08 01:28:17;;;;;;;;;;;19.20;45.60;;;;;;5093701;28;19919;-56
2024/01/08 01:30:44;;;;;;;;;;;19.20;45.60;;;;;;5083630;28;19924;-56
2024/01/08 01:33:10;;;;;;;;;;;19.20;45.60;;;;;;5095570;28;19973;-56
2024/01/08 01:35:41;;;;;;;;;;;19.20;45.60;;;;;;5086748;28;19921;-52
2024/01/08 01:38:09;;;;;;;;;;;19.20;45.50;;;;;;5084711;28;20016;-56
2024/01/08 01:40:35;;;;;;;;;;;19.20;45.50;;;;;;5070974;28;19926;-54
2024/01/08 01:43:02;;;;;;;;;;;19.20;45.50;;;;;;5094823;28;19920;-54
2024/01/08 01:45:29;;;;;;;;;;;19.20;45.50;;;;;;5093728;28;19949;-55
2024/01/08 01:47:56;;;;;;;;;;;19.20;45.50;;;;;;5094736;28;19938;-56
2024/01/08 01:50:23;;;;;;;;;;;19.20;45.50;;;;;;5095072;28;19989;-54
2024/01/08 01:52:51;;;;;;;;;;;19.20;45.40;;;;;;5093717;28;19927;-55
2024/01/08 01:55:18;;;;;;;;;;;19.20;45.40;;;;;;5088273;28;19920;-53
2024/01/08 01:57:45;;;;;;;;;;;19.20;45.40;;;;;;5073783;28;19935;-54
2024/01/08 02:00:13;;;;;;;;;;;19.20;45.40;;;;;;5080309;28;19920;-56
2024/01/08 02:02:40;;;;;;;;;;;19.20;45.30;;;;;;5080421;28;19970;-56
2024/01/08 02:05:11;;;;;;;;;;;19.20;45.30;;;;;;5094661;28;19927;-56
2024/01/08 02:07:38;;;;;;;;;;;19.20;45.30;;;;;;5061922;28;19964;-56
2024/01/08 02:10:07;;;;;;;;;;;19.20;45.30;;;;;;5094750;28;19982;-55
2024/01/08 02:12:34;;;;;;;;;;;19.10;45.40;;;;;;5078424;28;21379;-57
2024/01/08 02:15:04;;;;;;;;;;;19.20;45.30;;;;;;5093700;28;19923;-56
2024/01/08 02:17:31;;;;;;;;;;;19.20;45.30;;;;;;5094559;28;19935;-57
2024/01/08 02:19:58;;;;;;;;;;;19.20;45.30;;;;;;5070875;28;19920;-56
2024/01/08 02:22:25;;;;;;;;;;;19.20;45.30;;;;;;5077724;28;19924;-54
2024/01/08 02:24:53;;;;;;;;;;;19.20;45.30;;;;;;5074580;28;19934;-55
2024/01/08 02:27:20;;;;;;;;;;;19.10;45.20;;;;;;5092889;28;19920;-56
2024/01/08 02:29:48;;;;;;;;;;;19.20;45.30;;;;;;5093148;28;19920;-55
2024/01/08 02:32:15;;;;;;;;;;;19.20;45.30;;;;;;5086628;28;19920;-56
2024/01/08 02:34:42;;;;;;;;;;;19.20;45.30;;;;;;5093723;28;20285;-54
2024/01/08 02:37:09;;;;;;;;;;;19.20;45.30;;;;;;5086742;28;20350;-56
2024/01/08 02:39:36;;;;;;;;;;;19.20;45.40;;;;;;5093760;28;19981;-55
2024/01/08 02:42:05;;;;;;;;;;;19.20;45.40;;;;;;5091318;28;19920;-55
2024/01/08 02:44:31;;;;;;;;;;;19.20;45.40;;;;;;5078650;28;20007;-56
2024/01/08 02:46:58;;;;;;;;;;;19.10;45.30;;;;;;5087535;28;19951;-56
2024/01/08 02:49:25;;;;;;;;;;;19.10;45.30;;;;;;5093837;28;19927;-54
2024/01/08 02:51:52;;;;;;;;;;;19.20;45.50;;;;;;5061432;28;20030;-57
2024/01/08 02:54:19;;;;;;;;;;;19.20;45.50;;;;;;5088936;28;20434;-56
2024/01/08 02:56:47;;;;;;;;;;;19.20;45.50;;;;;;5073838;28;19920;-56
2024/01/08 02:59:16;;;;;;;;;;;19.20;45.50;;;;;;5069232;28;19970;-57
2024/01/08 03:01:43;;;;;;;;;;;19.20;45.50;;;;;;5092589;28;19985;-55
2024/01/08 03:04:11;;;;;;;;;;;19.20;45.50;;;;;;5092869;28;19920;-56
2024/01/08 03:06:38;;;;;;;;;;;19.20;45.60;;;;;;5082194;28;19924;-56
2024/01/08 03:09:07;;;;;;;;;;;19.20;45.60;;;;;;5092607;28;19920;-56
2024/01/08 03:11:34;;;;;;;;;;;19.10;45.50;;;;;;5057621;28;19920;-56
2024/01/08 03:14:00;;;;;;;;;;;19.20;45.60;;;;;;5075735;28;19920;-55
2024/01/08 03:16:31;;;;;;;;;;;19.10;45.50;;;;;;5092191;28;19977;-58
2024/01/08 03:18:57;;;;;;;;;;;19.20;45.60;;;;;;5078198;28;19920;-57
2024/01/08 03:21:25;;;;;;;;;;;19.20;45.60;;;;;;5076188;28;19920;-55
2024/01/08 03:23:52;;;;;;;;;;;19.20;45.60;;;;;;5079580;28;19923;-56
2024/01/08 03:26:20;;;;;;;;;;;19.10;45.50;;;;;;5092784;28;19920;-55
2024/01/08 03:28:48;;;;;;;;;;;19.20;45.60;;;;;;5083332;28;19920;-55
2024/01/08 03:31:16;;;;;;;;;;;19.20;45.60;;;;;;5073101;28;19920;-56
2024/01/08 03:33:44;;;;;;;;;;;19.20;45.50;;;;;;5085695;28;19920;-56
2024/01/08 03:36:11;;;;;;;;;;;19.20;45.50;;;;;;5076779;28;20404;-57
2024/01/08 03:38:38;;;;;;;;;;;19.20;45.50;;;;;;5065843;28;19920;-58
2024/01/08 03:41:06;;;;;;;;;;;19.20;45.50;;;;;;5091196;28;19974;-56
2024/01/08 03:43:33;;;;;;;;;;;19.10;45.40;;;;;;5086173;28;19927;-57
2024/01/08 03:46:01;;;;;;;;;;;19.10;45.30;;;;;;5093716;28;19920;-56
2024/01/08 03:48:27;;;;;;;;;;;19.10;45.30;;;;;;5092687;28;19931;-55
2024/01/08 03:50:55;;;;;;;;;;;19.10;45.30;;;;;;5072309;28;19988;-57
2024/01/08 03:53:23;;;;;;;;;;;19.10;45.30;;;;;;5081499;28;19924;-56
2024/01/08 03:55:49;;;;;;;;;;;19.10;45.30;;;;;;5087280;28;19920;-55
2024/01/08 03:58:17;;;;;;;;;;;19.10;45.30;;;;;;5063228;28;19920;-56
2024/01/08 04:00:44;;;;;;;;;;;19.10;45.20;;;;;;5083997;28;19920;-57
2024/01/08 04:03:10;;;;;;;;;;;19.10;45.20;;;;;;5064652;28;19920;-58
2024/01/08 04:05:39;;;;;;;;;;;19.10;45.20;;;;;;5074451;28;19924;-54
2024/01/08 04:08:07;;;;;;;;;;;19.10;45.20;;;;;;5079189;28;19920;-57
2024/01/08 04:10:34;;;;;;;;;;;19.10;45.20;;;;;;5066169;28;19920;-58
2024/01/08 04:13:01;;;;;;;;;;;19.10;45.20;;;;;;5079896;28;19920;-57
2024/01/08 04:15:27;;;;;;;;;;;19.10;45.20;;;;;;5090789;28;19928;-57
2024/01/08 04:17:54;;;;;;;;;;;19.10;45.20;;;;;;5078858;28;19920;-55
2024/01/08 04:20:21;;;;;;;;;;;19.10;45.20;;;;;;5073369;28;19920;-57
2024/01/08 04:22:49;;;;;;;;;;;19.10;45.20;;;;;;5090473;28;19977;-57
2024/01/08 04:25:17;;;;;;;;;;;19.10;45.20;;;;;;5074424;28;19920;-57
2024/01/08 04:27:44;;;;;;;;;;;19.10;45.20;;;;;;5077149;28;19920;-55
2024/01/08 04:30:11;;;;;;;;;;;19.10;45.20;;;;;;5091418;28;19920;-56
2024/01/08 04:32:38;;;;;;;;;;;19.10;45.20;;;;;;5076477;28;19931;-57
2024/01/08 04:35:05;;;;;;;;;;;19.10;45.20;;;;;;5074961;28;19927;-55
2024/01/08 04:37:32;;;;;;;;;;;19.10;45.30;;;;;;5093460;28;19924;-56
2024/01/08 04:39:59;;;;;;;;;;;19.10;45.30;;;;;;5074592;28;19969;-56
2024/01/08 04:42:27;;;;;;;;;;;19.10;45.30;;;;;;5073664;28;20304;-56
2024/01/08 04:44:53;;;;;;;;;;;19.10;45.30;;;;;;5079597;28;19920;-56
2024/01/08 04:47:20;;;;;;;;;;;19.10;45.30;;;;;;5091020;28;19920;-56
2024/01/08 04:49:47;;;;;;;;;;;19.10;45.40;;;;;;5094560;28;19973;-56
2024/01/08 04:52:14;;;;;;;;;;;19.10;45.40;;;;;;5092541;28;19973;-54
2024/01/08 04:54:41;;;;;;;;;;;19.10;45.40;;;;;;5092838;28;19920;-56
2024/01/08 04:57:08;;;;;;;;;;;19.10;45.40;;;;;;5091624;28;19920;-56
2024/01/08 04:59:41;;;;;;;;;;;19.10;45.40;;;;;;5085170;28;19920;-57
2024/01/08 05:02:08;;;;;;;;;;;19.10;45.40;;;;;;5090263;28;19924;-56
2024/01/08 05:04:34;;;;;;;;;;;19.10;45.40;;;;;;5086858;28;19927;-55
2024/01/08 05:07:02;;;;;;;;;;;19.10;45.50;;;;;;5078437;28;19995;-56
2024/01/08 05:09:29;;;;;;;;;;;19.10;45.50;;;;;;5076949;28;19920;-55
2024/01/08 05:11:55;;;;;;;;;;;19.10;45.50;;;;;;5086460;28;19927;-56
2024/01/08 05:14:22;;;;;;;;;;;19.10;45.50;;;;;;5098302;28;19920;-57
2024/01/08 05:16:50;;;;;;;;;;;19.10;45.50;;;;;;5091874;28;19923;-56
2024/01/08 05:19:17;;;;;;;;;;;19.10;45.60;;;;;;5090675;28;19920;-56
2024/01/08 05:21:44;;;;;;;;;;;19.10;45.50;;;;;;5081818;28;19920;-55
2024/01/08 05:24:11;;;;;;;;;;;19.10;45.50;;;;;;5094795;28;19928;-56
2024/01/08 05:26:37;;;;;;;;;;;19.10;45.50;;;;;;5083003;28;19924;-57
2024/01/08 05:29:04;;;;;;;;;;;19.10;45.50;;;;;;5071400;28;20446;-54
2024/01/08 05:31:31;;;;;;;;;;;19.10;45.50;;;;;;5095208;28;19924;-57
2024/01/08 05:33:59;;;;;;;;;;;19.10;45.40;;;;;;5078839;28;19993;-59
2024/01/08 05:36:26;;;;;;;;;;;19.10;45.40;;;;;;5091538;28;19924;-58
2024/01/08 05:38:52;;;;;;;;;;;19.10;45.40;;;;;;5084142;28;19959;-57
2024/01/08 05:41:20;;;;;;;;;;;19.10;45.40;;;;;;5078857;28;19927;-56
2024/01/08 05:43:47;;;;;;;;;;;19.10;45.40;;;;;;5079140;28;19926;-56
2024/01/08 05:46:14;;;;;;;;;;;19.10;45.30;;;;;;5083377;28;19920;-57
2024/01/08 05:48:40;;;;;;;;;;;19.10;45.40;;;;;;5075645;28;19924;-57
2024/01/08 05:51:08;;;;;;;;;;;19.10;45.30;;;;;;5081304;28;19974;-57
2024/01/08 05:53:35;;;;;;;;;;;19.10;45.30;;;;;;5082225;28;19966;-56
2024/01/08 05:56:03;;;;;;;;;;;19.10;45.30;;;;;;5079849;28;19977;-56
2024/01/08 05:58:32;;;;;;;;;;;19.10;45.30;;;;;;5087582;28;19924;-56
2024/01/08 06:00:59;;;;;;;;;;;19.10;45.30;;;;;;5084351;28;19931;-57
2024/01/08 06:03:25;;;;;;;;;;;19.10;45.30;;;;;;5083646;28;19932;-55
2024/01/08 06:05:52;;;;;;;;;;;19.10;45.20;;;;;;5093836;28;19924;-56
2024/01/08 06:08:20;;;;;;;;;;;19.10;45.30;;;;;;5082372;28;19920;-57
2024/01/08 06:10:48;;;;;;;;;;;19.10;45.20;;;;;;5084505;28;20008;-57
2024/01/08 06:13:15;;;;;;;;;;;19.10;45.80;;;;;;5093929;28;20246;-57
2024/01/08 06:15:42;;;;;;;;;;;19.10;45.20;;;;;;5076536;28;19928;-56
2024/01/08 06:18:09;;;;;;;;;;;19.10;45.20;;;;;;5079790;28;19924;-57
2024/01/08 06:20:35;;;;;;;;;;;19.10;45.20;;;;;;5091676;28;19932;-57
2024/01/08 06:23:02;;;;;;;;;;;19.10;45.20;;;;;;5078678;28;20135;-56
2024/01/08 06:25:30;;;;;;;;;;;19.10;45.20;;;;;;5080693;28;19924;-56
2024/01/08 06:27:57;;;;;;;;;;;19.10;45.20;;;;;;5093895;28;19924;-55
2024/01/08 06:30:24;;;;;;;;;;;19.10;45.20;;;;;;5080448;28;19927;-56
2024/01/08 06:32:50;;;;;;;;;;;19.10;45.30;;;;;;5082623;28;19920;-56
2024/01/08 06:35:17;;;;;;;;;;;19.10;45.30;;;;;;5078198;28;19942;-55
2024/01/08 06:37:44;;;;;;;;;;;19.10;45.30;;;;;;5093803;28;19920;-57
2024/01/08 06:40:11;;;;;;;;;;;19.10;45.30;;;;;;5090541;28;19920;-56
2024/01/08 06:42:42;;;;;;;;;;;19.10;45.40;;;;;;5079571;28;19920;-58
2024/01/08 06:45:09;;;;;;;;;;;19.10;45.30;;;;;;5093567;28;20010;-56
2024/01/08 06:47:36;;;;;;;;;;;19.10;45.40;;;;;;5093944;28;19927;-55
2024/01/08 06:50:04;;;;;;;;;;;19.10;45.40;;;;;;5075268;28;19920;-56
2024/01/08 06:52:31;;;;;;;;;;;19.10;45.40;;;;;;5082324;28;20250;-55
2024/01/08 06:54:58;;;;;;;;;;;19.10;45.40;;;;;;5081304;28;19931;-56
2024/01/08 06:57:25;;;;;;;;;;;19.10;45.50;;;;;;5076839;28;19923;-56
2024/01/08 06:59:53;;;;;;;;;;;19.10;45.40;;;;;;5084119;28;20433;-54
2024/01/08 07:02:20;;;;;;;;;;;19.10;45.50;;;;;;5091312;28;19928;-57
2024/01/08 07:04:47;;;;;;;;;;;19.10;45.50;;;;;;5076826;28;19977;-57
2024/01/08 07:07:13;;;;;;;;;;;19.10;45.50;;;;;;5078032;28;19981;-57
2024/01/08 07:09:40;;;;;;;;;;;19.10;45.50;;;;;;5074242;28;19920;-57
2024/01/08 07:12:08;;;;;;;;;;;19.10;45.50;;;;;;5078213;28;19920;-57
2024/01/08 07:14:38;;;;;;;;;;;19.10;45.50;;;;;;5071298;28;19927;-56
2024/01/08 07:17:07;;;;;;;;;;;19.10;46.10;;;;;;5092091;28;19927;-57
2024/01/08 07:19:33;;;;;;;;;;;19.10;45.60;;;;;;5091135;28;19977;-57
2024/01/08 07:22:00;;;;;;;;;;;19.10;45.60;;;;;;5092782;28;19920;-57
2024/01/08 07:24:28;;;;;;;;;;;19.10;45.60;;;;;;5089794;28;19924;-58
2024/01/08 07:26:56;;;;;;;;;;;19.10;45.60;;;;;;5077404;28;19963;-56
2024/01/08 07:29:23;;;;;;;;;;;19.10;45.60;;;;;;5091202;28;19920;-57
2024/01/08 07:31:51;;;;;;;;;;;19.10;45.60;;;;;;5087903;28;19924;-56
2024/01/08 07:34:20;;;;;;;;;;;19.10;45.60;;;;;;5088142;28;19955;-57
2024/01/08 07:36:47;;;;;;;;;;;19.10;36.70;;;;;;5091460;28;19920;-56
2024/01/08 07:39:14;;;;;;;;;;;18.80;28.90;;;;;;5086637;28;19927;-58
2024/01/08 07:41:41;;;;;;;;;;;18.50;27.00;;;;;;5090266;28;19927;-56
2024/01/08 07:44:08;;;;;;;;;;;18.10;28.30;;;;;;5083210;28;19966;-57
2024/01/08 07:46:34;;;;;;;;;;;17.90;31.00;;;;;;5080562;28;19920;-56
2024/01/08 07:49:01;;;;;;;;;;;17.80;33.40;;;;;;5077747;28;19927;-57
2024/01/08 07:51:29;;;;;;;;;;;17.70;34.70;;;;;;5080175;28;19982;-57
2024/01/08 07:53:56;;;;;;;;;;;17.70;35.80;;;;;;5080281;28;19920;-56
2024/01/08 07:56:23;;;;;;;;;;;17.80;36.60;;;;;;5092443;28;19928;-57
2024/01/08 07:58:50;;;;;;;;;;;17.80;37.20;;;;;;5077998;28;19940;-57
2024/01/08 08:01:17;;;;;;;;;;;17.90;37.80;;;;;;5079598;28;19920;-57
2024/01/08 08:03:43;;;;;;;;;;;17.90;38.40;;;;;;5088864;28;19931;-56
2024/01/08 08:06:10;;;;;;;;;;;18.00;39.00;;;;;;5072948;28;19947;-56
2024/01/08 08:08:38;;;;;;;;;;;18.10;39.50;;;;;;5086935;28;19924;-53
2024/01/08 08:11:06;;;;;;;;;;;18.10;39.80;;;;;;5076184;28;19932;-56
2024/01/08 08:13:33;;;;;;;;;;;18.10;39.90;;;;;;5081782;28;19999;-56
2024/01/08 08:16:00;;;;;;;;;;;18.20;40.20;;;;;;5077841;28;19927;-58
2024/01/08 08:18:26;;;;;;;;;;;18.20;40.40;;;;;;5059121;28;19973;-57
2024/01/08 08:20:53;;;;;;;;;;;18.30;40.70;;;;;;5083271;28;19928;-57
2024/01/08 08:23:20;;;;;;;;;;;18.30;40.80;;;;;;5066188;28;19936;-56
2024/01/08 08:25:48;;;;;;;;;;;18.30;41.10;;;;;;5078979;28;19965;-57
2024/01/08 08:28:15;;;;;;;;;;;18.40;41.30;;;;;;5062454;28;19963;-54
2024/01/08 08:30:42;;;;;;;;;;;18.40;41.40;;;;;;5062353;28;20414;-57
2024/01/08 08:33:09;;;;;;;;;;;18.50;41.60;;;;;;5076914;28;19924;-58
2024/01/08 08:35:36;;;;;;;;;;;18.50;41.80;;;;;;5089633;28;19920;-58
2024/01/08 08:38:03;;;;;;;;;;;18.50;41.90;;;;;;5088375;28;19963;-56
2024/01/08 08:40:29;;;;;;;;;;;18.50;42.00;;;;;;5078926;28;19924;-54
2024/01/08 08:42:58;;;;;;;;;;;18.60;42.20;;;;;;5083675;28;19977;-51
2024/01/08 08:45:24;;;;;;;;;;;18.60;42.30;;;;;;5093315;28;19990;-57
2024/01/08 08:47:51;;;;;;;;;;;18.60;42.40;;;;;;5078581;28;19935;-57
2024/01/08 08:50:18;;;;;;;;;;;18.60;42.50;;;;;;5091113;28;19927;-57
2024/01/08 08:52:44;;;;;;;;;;;18.70;42.60;;;;;;5083543;28;19970;-55
2024/01/08 08:55:12;;;;;;;;;;;18.70;43.20;;;;;;5084694;28;19920;-55
2024/01/08 08:57:38;;;;;;;;;;;18.70;42.80;;;;;;5060122;28;19936;-57
2024/01/08 09:00:08;;;;;;;;;;;18.70;42.80;;;;;;5074264;28;19932;-57
2024/01/08 09:02:35;;;;;;;;;;;18.70;42.90;;;;;;5065249;28;20035;-56
2024/01/08 09:05:02;;;;;;;;;;;18.70;42.90;;;;;;5061233;28;19977;-55
2024/01/08 09:07:28;;;;;;;;;;;18.80;43.00;;;;;;5061189;28;20044;-57
2024/01/08 09:09:55;;;;;;;;;;;18.80;43.10;;;;;;5062545;28;19973;-52
2024/01/08 09:12:22;;;;;;;;;;;18.80;43.10;;;;;;5080768;28;19953;-55
2024/01/08 09:14:48;;;;;;;;;;;18.80;43.20;;;;;;5078335;28;19970;-58
2024/01/08 09:17:17;;;;;;;;;;;18.80;43.20;;;;;;5079297;28;19920;-55
2024/01/08 09:19:43;;;;;;;;;;;18.80;43.30;;;;;;5091398;28;19939;-54
2024/01/08 09:22:10;;;;;;;;;;;18.80;43.30;;;;;;5092221;28;19966;-53
2024/01/08 09:24:37;;;;;;;;;;;18.90;43.40;;;;;;5076336;28;19943;-52
2024/01/08 09:27:04;;;;;;;;;;;18.90;43.50;;;;;;5071013;28;19924;-55
2024/01/08 09:29:31;;;;;;;;;;;18.90;43.50;;;;;;5086503;28;19981;-55
2024/01/08 09:31:58;;;;;;;;;;;18.90;43.50;;;;;;5080604;28;20493;-53
2024/01/08 09:34:26;;;;;;;;;;;18.90;43.50;;;;;;5076053;28;19928;-53
2024/01/08 09:36:55;;;;;;;;;;;18.90;43.50;;;;;;5090523;28;19924;-57
2024/01/08 09:39:22;;;;;;;;;;;18.90;43.50;;;;;;5088278;28;19928;-56
2024/01/08 09:41:48;;;;;;;;;;;18.90;43.60;;;;;;5080159;28;19974;-55
2024/01/08 09:44:15;;;;;;;;;;;18.90;43.60;;;;;;5087920;28;19920;-56
2024/01/08 09:46:43;;;;;;;;;;;19.00;43.70;;;;;;5084414;28;19985;-58
2024/01/08 09:49:10;;;;;;;;;;;19.00;43.70;;;;;;5078922;28;19920;-58
2024/01/08 09:51:38;;;;;;;;;;;19.00;43.70;;;;;;5070556;28;19931;-57
2024/01/08 09:54:05;;;;;;;;;;;19.00;43.70;;;;;;5083721;28;19924;-58
2024/01/08 09:56:32;;;;;;;;;;;19.00;43.80;;;;;;5068284;28;19976;-50
2024/01/08 09:58:58;;;;;;;;;;;19.00;44.40;;;;;;5070076;28;19932;-53
2024/01/08 10:01:26;;;;;;;;;;;19.00;43.80;;;;;;5072651;28;19920;-57
2024/01/08 10:03:53;;;;;;;;;;;19.00;43.20;;;;;;5089807;28;20450;-56
2024/01/08 10:06:19;;;;;;;;;;;18.90;43.30;;;;;;5072194;28;19920;-58
2024/01/08 10:08:48;;;;;;;;;;;18.90;43.30;;;;;;5073071;28;19936;-58
2024/01/08 10:11:15;;;;;;;;;;;18.90;43.30;;;;;;5064403;28;19927;-54
2024/01/08 10:13:41;;;;;;;;;;;18.90;43.40;;;;;;5084504;28;19958;-58
2024/01/08 10:16:08;;;;;;;;;;;18.90;43.40;;;;;;5076855;28;19920;-57
2024/01/08 10:18:35;;;;;;;;;;;18.90;43.40;;;;;;5092344;28;19931;-58
2024/01/08 10:21:09;;;;;;;;;;;18.90;43.50;;;;;;5076996;28;20163;-52
2024/01/08 10:23:36;;;;;;;;;;;19.00;43.60;;;;;;5065725;28;19973;-56
2024/01/08 10:26:04;;;;;;;;;;;19.00;43.60;;;;;;5082975;28;19931;-54
2024/01/08 10:28:35;;;;;;;;;;;19.00;43.60;;;;;;5072411;28;19928;-56
2024/01/08 10:31:03;;;;;;;;;;;19.00;43.60;;;;;;5071361;28;19931;-57
2024/01/08 10:33:30;;;;;;;;;;;19.00;43.60;;;;;;5076170;28;19944;-55
2024/01/08 10:35:57;;;;;;;;;;;19.00;43.70;;;;;;5066936;28;19932;-54
2024/01/08 10:38:23;;;;;;;;;;;19.00;43.70;;;;;;5082929;28;19924;-55
2024/01/08 10:40:50;;;;;;;;;;;19.00;43.80;;;;;;5079914;28;19925;-56
2024/01/08 10:43:18;;;;;;;;;;;19.00;43.80;;;;;;5068688;28;19921;-53
2024/01/08 10:45:45;;;;;;;;;;;19.00;43.80;;;;;;5086338;28;19919;-56
2024/01/08 10:48:12;;;;;;;;;;;19.00;43.80;;;;;;5083216;28;19928;-57
2024/01/08 10:50:39;;;;;;;;;;;19.10;43.90;;;;;;5072680;28;19920;-54
2024/01/08 10:53:09;;;;;;;;;;;19.10;44.00;;;;;;5065647;28;19974;-57
2024/01/08 10:55:36;;;;;;;;;;;19.10;44.00;;;;;;5063951;28;19921;-54
2024/01/08 10:58:04;;;;;;;;;;;19.10;44.10;;;;;;5073012;28;19931;-55
2024/01/08 11:00:32;;;;;;;;;;;19.10;44.10;;;;;;5084421;28;20378;-56
2024/01/08 11:02:58;;;;;;;;;;;19.10;44.10;;;;;;5088236;28;19939;-54
2024/01/08 11:05:26;;;;;;;;;;;19.10;44.10;;;;;;5071066;28;19974;-57
2024/01/08 11:07:53;;;;;;;;;;;19.10;44.10;;;;;;5071203;28;19940;-57
2024/01/08 11:10:22;;;;;;;;;;;19.10;44.10;;;;;;5070170;28;20334;-55
2024/01/08 11:12:52;;;;;;;;;;;19.20;44.30;;;;;;5071857;28;19972;-55
2024/01/08 11:15:19;;;;;;;;;;;19.20;44.30;;;;;;5092151;28;19978;-53
2024/01/08 11:17:51;;;;;;;;;;;19.10;44.20;;;;;;5081004;28;19947;-52
2024/01/08 11:20:37;;;;;;;;;;;19.20;44.90;;;;;;5089695;28;19920;-52
2024/01/08 11:23:04;;;;;;;;;;;19.20;44.30;;;;;;5084056;28;19925;-54
2024/01/08 11:25:31;;;;;;;;;;;19.20;44.40;;;;;;5071158;28;19924;-56
2024/01/08 11:27:58;;;;;;;;;;;19.20;44.40;;;;;;5071166;28;19932;-52
2024/01/08 11:30:24;;;;;;;;;;;19.20;44.40;;;;;;5092868;28;19924;-55
2024/01/08 11:33:20;;;;;;;;;;;19.20;44.40;;;;;;5071530;28;19924;-56
2024/01/08 11:35:47;;;;;;;;;;;19.20;44.40;;;;;;5081928;28;19943;-56
2024/01/08 11:38:23;;;;;;;;;;;19.20;44.40;;;;;;5063326;28;20269;-56
2024/01/08 11:40:51;;;;;;;;;;;19.20;44.40;;;;;;5067761;28;21010;-57
2024/01/08 11:43:18;;;;;;;;;;;19.20;44.40;;;;;;5072473;28;19932;-56
2024/01/08 11:45:45;;;;;;;;;;;19.20;44.40;;;;;;5086735;28;19927;-58
2024/01/08 11:48:12;;;;;;;;;;;19.20;44.40;;;;;;5067700;28;20443;-58
2024/01/08 11:50:42;;;;;;;;;;;19.20;44.40;;;;;;5073268;28;19973;-58
2024/01/08 11:53:09;;;;;;;;;;;19.20;44.50;;;;;;5066358;28;19927;-59
2024/01/08 11:55:36;;;;;;;;;;;19.20;44.50;;;;;;5072602;28;19972;-58
2024/01/08 11:58:04;;;;;;;;;;;19.20;44.50;;;;;;5077054;28;19928;-58
2024/01/08 12:00:31;;;;;;;;;;;19.20;44.50;;;;;;5075494;28;19952;-58
2024/01/08 12:03:04;;;;;;;;;;;19.20;44.60;;;;;;5079401;28;19920;-58
2024/01/08 12:05:31;;;;;;;;;;;19.20;44.50;;;;;;5080377;28;19951;-58
2024/01/08 12:07:59;;;;;;;;;;;19.30;44.70;;;;;;5077538;28;19920;-58
2024/01/08 12:10:26;;;;;;;;;;;19.20;44.50;;;;;;5083379;28;20015;-57
2024/01/08 12:12:55;;;;;;;;;;;19.20;44.50;;;;;;5097678;28;19924;-55
2024/01/08 12:15:22;;;;;;;;;;;19.30;44.60;;;;;;5072572;28;19924;-58
2024/01/08 12:17:49;;;;;;;;;;;19.20;34.10;;;;;;5089912;28;19924;-57
2024/01/08 12:20:16;;;;;;;;;;;19.00;28.90;;;;;;5058606;28;19939;-56
2024/01/08 12:22:43;;;;;;;;;;;18.80;29.40;;;;;;5071746;28;20163;-58
2024/01/08 12:25:11;;;;;;;;;;;18.60;32.00;;;;;;5080026;28;19924;-56
2024/01/08 12:27:39;;;;;;;;;;;18.50;34.20;;;;;;5084991;28;19986;-57
2024/01/08 12:30:06;;;;;;;;;;;18.40;35.50;;;;;;5074664;28;19920;-57
2024/01/08 12:32:33;;;;;;;;;;;18.40;36.90;;;;;;5073852;28;20340;-56
2024/01/08 12:35:03;;;;;;;;;;;18.50;37.80;;;;;;5077951;28;19928;-58
2024/01/08 12:37:32;;;;;;;;;;;18.50;38.50;;;;;;5073352;28;19971;-56
2024/01/08 12:39:59;;;;;;;;;;;18.50;39.20;;;;;;5077758;28;19920;-57
2024/01/08 12:42:27;;;;;;;;;;;18.50;39.60;;;;;;5070930;28;20154;-56
2024/01/08 12:44:55;;;;;;;;;;;18.60;40.00;;;;;;5074617;28;19932;-54
2024/01/08 12:47:22;;;;;;;;;;;18.60;40.20;;;;;;5073178;28;19935;-54
2024/01/08 12:49:49;;;;;;;;;;;18.70;40.50;;;;;;5076782;28;19942;-54
2024/01/08 12:52:16;;;;;;;;;;;18.70;40.70;;;;;;5088745;28;19932;-53
2024/01/08 12:54:43;;;;;;;;;;;18.70;40.80;;;;;;5071901;28;19921;-55
2024/01/08 12:57:10;;;;;;;;;;;18.70;41.00;;;;;;5077139;28;19923;-57
2024/01/08 12:59:40;;;;;;;;;;;18.80;41.20;;;;;;5086007;28;19924;-56
2024/01/08 13:02:07;;;;;;;;;;;18.80;41.40;;;;;;5076580;28;19920;-57
2024/01/08 13:04:33;;;;;;;;;;;18.80;41.50;;;;;;5078804;28;19924;-58
2024/01/08 13:07:00;;;;;;;;;;;18.90;41.70;;;;;;5087417;28;19928;-58
2024/01/08 13:09:27;;;;;;;;;;;18.90;41.80;;;;;;5069931;28;20208;-55
2024/01/08 13:11:54;;;;;;;;;;;18.90;41.90;;;;;;5088822;28;19935;-49
2024/01/08 13:14:21;;;;;;;;;;;18.90;42.00;;;;;;5071596;28;20330;-50
2024/01/08 13:16:49;;;;;;;;;;;18.90;42.10;;;;;;5071948;28;19996;-53
2024/01/08 13:19:15;;;;;;;;;;;18.90;42.20;;;;;;5088918;28;19925;-57
2024/01/08 13:21:41;;;;;;;;;;;19.00;42.30;;;;;;5071141;28;19924;-57
2024/01/08 13:24:09;;;;;;;;;;;19.00;42.30;;;;;;5084484;28;19927;-54
2024/01/08 13:26:36;;;;;;;;;;;19.00;42.40;;;;;;5073169;28;19970;-54
2024/01/08 13:29:04;;;;;;;;;;;19.00;42.40;;;;;;5084278;28;19989;-55
2024/01/08 13:31:30;;;;;;;;;;;19.00;42.50;;;;;;5077321;28;19924;-52
2024/01/08 13:33:58;;;;;;;;;;;19.00;42.50;;;;;;5078089;28;19932;-58
2024/01/08 13:36:25;;;;;;;;;;;19.00;42.60;;;;;;5082739;28;19932;-56
2024/01/08 13:38:52;;;;;;;;;;;19.00;42.60;;;;;;5092031;28;19924;-57
2024/01/08 13:41:19;;;;;;;;;;;19.00;42.70;;;;;;5078143;28;19931;-55
2024/01/08 13:43:46;;;;;;;;;;;19.00;42.70;;;;;;5078492;28;19989;-58
2024/01/08 13:46:13;;;;;;;;;;;19.00;42.80;;;;;;5082083;28;19924;-57
2024/01/08 13:48:41;;;;;;;;;;;19.00;42.80;;;;;;5078615;28;19993;-57
2024/01/08 13:51:12;;;;;;;;;;;19.10;42.90;;;;;;5092566;28;19932;-52
2024/01/08 13:53:40;;;;;;;;;;;19.10;43.00;;;;;;5089656;28;19931;-56
2024/01/08 13:56:07;;;;;;;;;;;19.10;43.00;;;;;;5089004;28;19936;-52
2024/01/08 13:58:33;;;;;;;;;;;19.10;43.00;;;;;;5090823;28;19969;-56
2024/01/08 14:01:00;;;;;;;;;;;19.10;43.10;;;;;;5082926;28;20037;-52
2024/01/08 14:03:27;;;;;;;;;;;19.10;43.10;;;;;;5079089;28;19939;-56
2024/01/08 14:05:54;;;;;;;;;;;19.10;43.10;;;;;;5082501;28;19928;-54
2024/01/08 14:08:22;;;;;;;;;;;19.10;43.20;;;;;;5077836;28;19931;-54
2024/01/08 14:10:50;;;;;;;;;;;19.10;43.20;;;;;;5090688;28;19958;-55
2024/01/08 14:13:16;;;;;;;;;;;19.10;43.20;;;;;;5078363;28;19934;-56
2024/01/08 14:15:43;;;;;;;;;;;19.10;43.20;;;;;;5085698;28;20361;-54
2024/01/08 14:18:11;;;;;;;;;;;19.10;43.20;;;;;;5076952;28;19969;-55